createdAt,value
2017-11-09T00:00:28.259Z,0
2017-11-09T00:01:30.686Z,0
2017-11-09T00:02:33.103Z,0
2017-11-09T00:03:35.537Z,0
2017-11-09T00:04:37.971Z,0
2017-11-09T00:05:40.398Z,0
2017-11-09T00:06:42.824Z,0
2017-11-09T00:07:45.260Z,0
2017-11-09T00:08:48.048Z,0
2017-11-09T00:09:50.465Z,0
2017-11-09T00:10:52.894Z,0
2017-11-09T00:11:55.328Z,0
2017-11-09T00:12:57.754Z,0
2017-11-09T00:14:00.179Z,0
2017-11-09T00:15:02.607Z,0
2017-11-09T00:16:05.033Z,0
2017-11-09T00:17:07.467Z,0
2017-11-09T00:18:09.899Z,0
2017-11-09T00:19:12.311Z,0
2017-11-09T00:20:14.758Z,0
2017-11-09T00:21:17.183Z,0
2017-11-09T00:22:19.968Z,0
2017-11-09T00:23:22.405Z,0
2017-11-09T00:24:24.823Z,0
2017-11-09T00:25:27.246Z,0
2017-11-09T00:26:29.690Z,0
2017-11-09T00:27:32.114Z,0
2017-11-09T00:28:34.535Z,0
2017-11-09T00:29:36.964Z,0
2017-11-09T00:30:39.382Z,0
2017-11-09T00:31:42.553Z,0
2017-11-09T00:32:44.995Z,0
2017-11-09T00:33:47.408Z,0
2017-11-09T00:34:49.831Z,0
2017-11-09T00:35:52.264Z,0
2017-11-09T00:36:54.684Z,0
2017-11-09T00:37:57.112Z,0
2017-11-09T00:38:59.899Z,0
2017-11-09T00:40:02.328Z,0
2017-11-09T00:41:04.752Z,0
2017-11-09T00:42:07.186Z,0
2017-11-09T00:43:09.608Z,0
2017-11-09T00:44:12.392Z,0
2017-11-09T00:45:14.825Z,0
2017-11-09T00:46:17.252Z,0
2017-11-09T00:47:19.680Z,0
2017-11-09T00:48:22.109Z,0
2017-11-09T00:49:24.886Z,0
2017-11-09T00:50:27.330Z,0
2017-11-09T00:51:29.752Z,0
2017-11-09T00:52:32.187Z,0
2017-11-09T00:53:34.615Z,0
2017-11-09T00:54:37.420Z,0
2017-11-09T00:55:40.207Z,0
2017-11-09T00:56:42.635Z,0
2017-11-09T00:57:45.058Z,0
2017-11-09T00:58:47.496Z,0
2017-11-09T00:59:49.922Z,0
2017-11-09T01:00:52.354Z,0
2017-11-09T01:01:54.778Z,0
2017-11-09T01:02:57.206Z,0
2017-11-09T01:03:59.635Z,0
2017-11-09T01:05:02.064Z,0
2017-11-09T01:06:04.492Z,0
2017-11-09T01:07:06.915Z,0
2017-11-09T01:08:09.337Z,0
2017-11-09T01:09:11.777Z,0
2017-11-09T01:10:14.204Z,0
2017-11-09T01:11:16.991Z,0
2017-11-09T01:12:19.417Z,0
2017-11-09T01:13:21.847Z,0
2017-11-09T01:14:24.637Z,0
2017-11-09T01:15:27.060Z,0
2017-11-09T01:16:29.477Z,0
2017-11-09T01:17:32.271Z,0
2017-11-09T01:18:35.069Z,0
2017-11-09T01:19:37.861Z,0
2017-11-09T01:20:40.672Z,0
2017-11-09T01:21:43.098Z,0
2017-11-09T01:22:45.921Z,0
2017-11-09T01:23:48.348Z,0
2017-11-09T01:24:50.774Z,0
2017-11-09T01:25:53.197Z,0
2017-11-09T01:26:55.976Z,0
2017-11-09T01:27:58.412Z,0
2017-11-09T01:29:00.839Z,0
2017-11-09T01:30:03.273Z,0
2017-11-09T01:31:06.072Z,0
2017-11-09T01:32:08.866Z,0
2017-11-09T01:33:11.292Z,0
2017-11-09T01:34:14.085Z,0
2017-11-09T01:35:16.497Z,0
2017-11-09T01:36:18.933Z,0
2017-11-09T01:37:21.360Z,0
2017-11-09T01:38:24.160Z,0
2017-11-09T01:39:26.585Z,0
2017-11-09T01:40:29.017Z,0
2017-11-09T01:41:31.443Z,0
2017-11-09T01:42:33.881Z,0
2017-11-09T01:43:36.309Z,0
2017-11-09T01:44:39.080Z,0
2017-11-09T01:45:41.507Z,0
2017-11-09T01:46:43.934Z,0
2017-11-09T01:47:46.355Z,0
2017-11-09T01:48:48.784Z,0
2017-11-09T01:49:51.563Z,0
2017-11-09T01:50:53.992Z,0
2017-11-09T01:51:56.419Z,0
2017-11-09T01:52:58.851Z,0
2017-11-09T01:54:01.284Z,0
2017-11-09T01:55:03.722Z,0
2017-11-09T01:56:06.511Z,0
2017-11-09T01:57:08.954Z,0
2017-11-09T01:58:11.382Z,0
2017-11-09T01:59:13.807Z,0
2017-11-09T02:00:16.979Z,0
2017-11-09T02:01:19.403Z,0
2017-11-09T02:02:22.189Z,0
2017-11-09T02:03:24.991Z,0
2017-11-09T02:04:27.769Z,0
2017-11-09T02:05:30.205Z,0
2017-11-09T02:06:32.630Z,0
2017-11-09T02:07:35.044Z,0
2017-11-09T02:08:37.856Z,0
2017-11-09T02:09:40.273Z,0
2017-11-09T02:10:43.058Z,0
2017-11-09T02:11:45.487Z,0
2017-11-09T02:12:47.909Z,0
2017-11-09T02:13:50.332Z,0
2017-11-09T02:14:52.770Z,0
2017-11-09T02:15:55.186Z,0
2017-11-09T02:16:57.614Z,0
2017-11-09T02:18:00.052Z,0
2017-11-09T02:19:02.471Z,0
2017-11-09T02:20:04.898Z,0
2017-11-09T02:21:07.324Z,0
2017-11-09T02:22:09.740Z,0
2017-11-09T02:23:12.175Z,0
2017-11-09T02:24:14.963Z,0
2017-11-09T02:25:17.381Z,0
2017-11-09T02:26:19.809Z,0
2017-11-09T02:27:22.243Z,0
2017-11-09T02:28:25.020Z,0
2017-11-09T02:29:27.824Z,0
2017-11-09T02:30:30.238Z,0
2017-11-09T02:31:32.666Z,0
2017-11-09T02:32:35.097Z,0
2017-11-09T02:33:38.246Z,0
2017-11-09T02:34:40.685Z,0
2017-11-09T02:35:43.112Z,0
2017-11-09T02:36:45.907Z,0
2017-11-09T02:37:48.692Z,0
2017-11-09T02:38:51.485Z,0
2017-11-09T02:39:53.923Z,0
2017-11-09T02:40:56.346Z,0
2017-11-09T02:41:58.769Z,0
2017-11-09T02:43:01.198Z,0
2017-11-09T02:44:03.624Z,0
2017-11-09T02:45:06.410Z,0
2017-11-09T02:46:09.192Z,0
2017-11-09T02:47:11.620Z,0
2017-11-09T02:48:14.405Z,0
2017-11-09T02:49:16.832Z,0
2017-11-09T02:50:19.257Z,0
2017-11-09T02:51:21.685Z,0
2017-11-09T02:52:24.112Z,0
2017-11-09T02:53:26.539Z,0
2017-11-09T02:54:29.350Z,0
2017-11-09T02:55:31.763Z,0
2017-11-09T02:56:34.201Z,0
2017-11-09T02:57:36.978Z,0
2017-11-09T02:58:39.404Z,0
2017-11-09T02:59:41.835Z,0
2017-11-09T03:00:44.611Z,0
2017-11-09T03:01:47.036Z,0
2017-11-09T03:02:49.460Z,0
2017-11-09T03:03:51.901Z,0
2017-11-09T03:04:54.688Z,0
2017-11-09T03:05:57.114Z,0
2017-11-09T03:06:59.545Z,0
2017-11-09T03:08:01.967Z,0
2017-11-09T03:09:04.391Z,0
2017-11-09T03:10:07.186Z,0
2017-11-09T03:11:09.601Z,0
2017-11-09T03:12:12.039Z,0
2017-11-09T03:13:14.460Z,0
2017-11-09T03:14:16.891Z,0
2017-11-09T03:15:19.320Z,0
2017-11-09T03:16:21.746Z,0
2017-11-09T03:17:24.178Z,0
2017-11-09T03:18:26.614Z,0
2017-11-09T03:19:29.051Z,0
2017-11-09T03:20:31.471Z,0
2017-11-09T03:21:33.887Z,0
2017-11-09T03:22:36.326Z,0
2017-11-09T03:23:38.751Z,0
2017-11-09T03:24:41.164Z,0
2017-11-09T03:25:43.587Z,0
2017-11-09T03:26:46.016Z,0
2017-11-09T03:27:48.441Z,0
2017-11-09T03:28:51.072Z,0
2017-11-09T03:29:53.491Z,0
2017-11-09T03:30:55.919Z,0
2017-11-09T03:31:58.358Z,0
2017-11-09T03:33:00.773Z,0
2017-11-09T03:34:03.565Z,0
2017-11-09T03:35:05.987Z,0
2017-11-09T03:36:08.420Z,0
2017-11-09T03:37:10.831Z,0
2017-11-09T03:38:13.260Z,0
2017-11-09T03:39:15.695Z,0
2017-11-09T03:40:18.124Z,0
2017-11-09T03:41:20.915Z,0
2017-11-09T03:42:23.348Z,0
2017-11-09T03:43:25.776Z,0
2017-11-09T03:44:28.215Z,0
2017-11-09T03:45:30.644Z,0
2017-11-09T03:46:33.071Z,0
2017-11-09T03:47:35.502Z,0
2017-11-09T03:48:37.935Z,0
2017-11-09T03:49:40.356Z,0
2017-11-09T03:50:43.141Z,0
2017-11-09T03:51:45.564Z,0
2017-11-09T03:52:47.989Z,0
2017-11-09T03:53:50.442Z,0
2017-11-09T03:54:52.840Z,0
2017-11-09T03:55:55.270Z,0
2017-11-09T03:56:57.700Z,0
2017-11-09T03:58:00.123Z,0
2017-11-09T03:59:02.938Z,0
2017-11-09T04:00:05.362Z,0
2017-11-09T04:01:07.794Z,0
2017-11-09T04:02:10.210Z,0
2017-11-09T04:03:13.013Z,0
2017-11-09T04:04:15.434Z,0
2017-11-09T04:05:17.860Z,0
2017-11-09T04:06:20.290Z,0
2017-11-09T04:07:23.074Z,0
2017-11-09T04:08:25.506Z,0
2017-11-09T04:09:27.938Z,0
2017-11-09T04:10:30.354Z,0
2017-11-09T04:11:32.779Z,0
2017-11-09T04:12:35.219Z,0
2017-11-09T04:13:37.640Z,0
2017-11-09T04:14:40.067Z,0
2017-11-09T04:15:42.849Z,0
2017-11-09T04:16:45.272Z,0
2017-11-09T04:17:47.719Z,0
2017-11-09T04:18:50.508Z,0
2017-11-09T04:19:52.923Z,0
2017-11-09T04:20:55.351Z,0
2017-11-09T04:21:57.785Z,0
2017-11-09T04:23:00.218Z,0
2017-11-09T04:24:03.002Z,0
2017-11-09T04:25:05.429Z,0
2017-11-09T04:26:07.858Z,0
2017-11-09T04:27:10.290Z,0
2017-11-09T04:28:12.723Z,0
2017-11-09T04:29:15.136Z,0
2017-11-09T04:30:17.563Z,0
2017-11-09T04:31:19.984Z,0
2017-11-09T04:32:22.413Z,0
2017-11-09T04:33:24.833Z,0
2017-11-09T04:34:27.271Z,0
2017-11-09T04:35:30.067Z,0
2017-11-09T04:36:32.489Z,0
2017-11-09T04:37:34.913Z,0
2017-11-09T04:38:37.334Z,0
2017-11-09T04:39:39.761Z,0
2017-11-09T04:40:42.192Z,0
2017-11-09T04:41:44.614Z,0
2017-11-09T04:42:47.039Z,0
2017-11-09T04:43:49.467Z,0
2017-11-09T04:44:51.895Z,0
2017-11-09T04:45:54.316Z,0
2017-11-09T04:46:56.748Z,0
2017-11-09T04:47:59.165Z,0
2017-11-09T04:49:01.948Z,0
2017-11-09T04:50:04.749Z,0
2017-11-09T04:51:07.173Z,0
2017-11-09T04:52:09.598Z,0
2017-11-09T04:53:12.038Z,0
2017-11-09T04:54:14.449Z,0
2017-11-09T04:55:17.239Z,0
2017-11-09T04:56:20.024Z,0
2017-11-09T04:57:22.807Z,0
2017-11-09T04:58:25.621Z,0
2017-11-09T04:59:28.429Z,0
2017-11-09T05:00:30.849Z,0
2017-11-09T05:01:33.275Z,0
2017-11-09T05:02:35.701Z,0
2017-11-09T05:03:38.481Z,0
2017-11-09T05:04:40.909Z,0
2017-11-09T05:05:43.339Z,0
2017-11-09T05:06:45.765Z,0
2017-11-09T05:07:48.202Z,0
2017-11-09T05:08:50.625Z,0
2017-11-09T05:09:53.053Z,0
2017-11-09T05:10:55.477Z,0
2017-11-09T05:11:57.901Z,0
2017-11-09T05:13:00.333Z,0
2017-11-09T05:14:02.756Z,0
2017-11-09T05:15:05.185Z,0
2017-11-09T05:16:07.614Z,0
2017-11-09T05:17:10.036Z,0
2017-11-09T05:18:12.456Z,0
2017-11-09T05:19:14.887Z,0
2017-11-09T05:20:17.312Z,0
2017-11-09T05:21:19.732Z,0
2017-11-09T05:22:22.163Z,0
2017-11-09T05:23:24.588Z,0
2017-11-09T05:24:27.018Z,0
2017-11-09T05:25:29.446Z,0
2017-11-09T05:26:32.226Z,0
2017-11-09T05:27:34.650Z,0
2017-11-09T05:28:37.081Z,0
2017-11-09T05:29:39.886Z,0
2017-11-09T05:30:42.311Z,0
2017-11-09T05:31:45.098Z,0
2017-11-09T05:32:47.531Z,0
2017-11-09T05:33:49.963Z,0
2017-11-09T05:34:52.383Z,0
2017-11-09T05:35:55.207Z,0
2017-11-09T05:36:57.627Z,0
2017-11-09T05:38:00.054Z,0
2017-11-09T05:39:02.838Z,0
2017-11-09T05:40:05.256Z,0
2017-11-09T05:41:07.679Z,0
2017-11-09T05:42:10.127Z,0
2017-11-09T05:43:12.527Z,0
2017-11-09T05:44:14.963Z,0
2017-11-09T05:45:17.386Z,0
2017-11-09T05:46:19.811Z,0
2017-11-09T05:47:22.240Z,0
2017-11-09T05:48:24.668Z,0
2017-11-09T05:49:27.096Z,0
2017-11-09T05:50:29.881Z,0
2017-11-09T05:51:32.316Z,0
2017-11-09T05:52:35.107Z,0
2017-11-09T05:53:37.542Z,0
2017-11-09T05:54:39.955Z,0
2017-11-09T05:55:42.380Z,0
2017-11-09T05:56:44.805Z,0
2017-11-09T05:57:47.581Z,4
2017-11-09T05:58:50.008Z,4
2017-11-09T05:59:52.459Z,4
2017-11-09T06:00:54.870Z,4
2017-11-09T06:01:57.651Z,0
2017-11-09T06:03:00.077Z,4
2017-11-09T06:04:02.507Z,4
2017-11-09T06:05:04.930Z,8
2017-11-09T06:06:08.107Z,4
2017-11-09T06:07:10.543Z,8
2017-11-09T06:08:12.957Z,8
2017-11-09T06:09:15.755Z,8
2017-11-09T06:10:18.532Z,12
2017-11-09T06:11:20.962Z,16
2017-11-09T06:12:23.768Z,16
2017-11-09T06:13:26.553Z,20
2017-11-09T06:14:28.973Z,24
2017-11-09T06:15:31.409Z,24
2017-11-09T06:16:33.823Z,28
2017-11-09T06:17:36.252Z,32
2017-11-09T06:18:39.044Z,36
2017-11-09T06:19:41.461Z,40
2017-11-09T06:20:43.892Z,40
2017-11-09T06:21:46.310Z,44
2017-11-09T06:22:48.734Z,52
2017-11-09T06:23:51.160Z,56
2017-11-09T06:24:54.301Z,60
2017-11-09T06:25:56.718Z,64
2017-11-09T06:26:59.148Z,72
2017-11-09T06:28:01.583Z,80
2017-11-09T06:29:04.012Z,88
2017-11-09T06:30:06.798Z,96
2017-11-09T06:31:09.583Z,104
2017-11-09T06:32:12.011Z,112
2017-11-09T06:33:14.430Z,116
2017-11-09T06:34:17.216Z,124
2017-11-09T06:35:19.644Z,128
2017-11-09T06:36:22.076Z,136
2017-11-09T06:37:24.498Z,144
2017-11-09T06:38:26.936Z,152
2017-11-09T06:39:29.344Z,160
2017-11-09T06:40:31.790Z,164
2017-11-09T06:41:34.206Z,176
2017-11-09T06:42:36.625Z,188
2017-11-09T06:43:39.049Z,200
2017-11-09T06:44:41.472Z,216
2017-11-09T06:45:43.903Z,224
2017-11-09T06:46:46.686Z,232
2017-11-09T06:47:49.119Z,244
2017-11-09T06:48:51.897Z,264
2017-11-09T06:49:54.332Z,280
2017-11-09T06:50:56.750Z,292
2017-11-09T06:51:59.171Z,304
2017-11-09T06:53:01.967Z,324
2017-11-09T06:54:04.793Z,340
2017-11-09T06:55:07.225Z,352
2017-11-09T06:56:10.015Z,360
2017-11-09T06:57:12.443Z,380
2017-11-09T06:58:14.876Z,400
2017-11-09T06:59:17.300Z,412
2017-11-09T07:00:20.104Z,416
2017-11-09T07:01:22.543Z,420
2017-11-09T07:02:24.969Z,424
2017-11-09T07:03:27.394Z,432
2017-11-09T07:04:29.824Z,436
2017-11-09T07:05:32.953Z,444
2017-11-09T07:06:35.369Z,460
2017-11-09T07:07:37.809Z,480
2017-11-09T07:08:40.219Z,488
2017-11-09T07:09:42.658Z,496
2017-11-09T07:10:45.083Z,504
2017-11-09T07:11:47.526Z,520
2017-11-09T07:12:49.932Z,548
2017-11-09T07:13:52.365Z,560
2017-11-09T07:14:54.783Z,540
2017-11-09T07:15:57.236Z,572
2017-11-09T07:16:59.651Z,552
2017-11-09T07:18:02.081Z,588
2017-11-09T07:19:04.512Z,572
2017-11-09T07:20:06.948Z,584
2017-11-09T07:21:09.359Z,564
2017-11-09T07:22:12.161Z,604
2017-11-09T07:23:14.935Z,600
2017-11-09T07:24:17.362Z,588
2017-11-09T07:25:19.784Z,628
2017-11-09T07:26:22.209Z,704
2017-11-09T07:27:24.987Z,808
2017-11-09T07:28:27.420Z,804
2017-11-09T07:29:29.849Z,824
2017-11-09T07:30:32.639Z,876
2017-11-09T07:31:35.055Z,884
2017-11-09T07:32:37.484Z,900
2017-11-09T07:33:39.910Z,928
2017-11-09T07:34:42.326Z,976
2017-11-09T07:35:44.756Z,972
2017-11-09T07:36:47.181Z,968
2017-11-09T07:37:49.602Z,1028
2017-11-09T07:38:52.032Z,1004
2017-11-09T07:39:54.457Z,1080
2017-11-09T07:40:56.876Z,1116
2017-11-09T07:41:59.673Z,1164
2017-11-09T07:43:02.092Z,1164
2017-11-09T07:44:04.515Z,1176
2017-11-09T07:45:06.947Z,1212
2017-11-09T07:46:09.364Z,1264
2017-11-09T07:47:11.804Z,1320
2017-11-09T07:48:14.234Z,1388
2017-11-09T07:49:16.655Z,1496
2017-11-09T07:50:19.085Z,1476
2017-11-09T07:51:21.886Z,1492
2017-11-09T07:52:24.310Z,1428
2017-11-09T07:53:26.739Z,1480
2017-11-09T07:54:29.159Z,1504
2017-11-09T07:55:31.587Z,1416
2017-11-09T07:56:34.018Z,1440
2017-11-09T07:57:36.443Z,1508
2017-11-09T07:58:39.224Z,1564
2017-11-09T07:59:41.661Z,1612
2017-11-09T08:00:44.306Z,1568
2017-11-09T08:01:46.729Z,1600
2017-11-09T08:02:49.163Z,1660
2017-11-09T08:03:51.591Z,1684
2017-11-09T08:04:54.009Z,1608
2017-11-09T08:05:56.802Z,1640
2017-11-09T08:06:59.594Z,1720
2017-11-09T08:08:02.019Z,1772
2017-11-09T08:09:04.451Z,1952
2017-11-09T08:10:07.268Z,1916
2017-11-09T08:11:09.696Z,1868
2017-11-09T08:12:12.122Z,1860
2017-11-09T08:13:14.559Z,1908
2017-11-09T08:14:17.344Z,1820
2017-11-09T08:15:19.774Z,1928
2017-11-09T08:16:22.192Z,2004
2017-11-09T08:17:24.629Z,1916
2017-11-09T08:18:27.067Z,1916
2017-11-09T08:19:29.489Z,1920
2017-11-09T08:20:31.910Z,1884
2017-11-09T08:21:34.699Z,1984
2017-11-09T08:22:37.112Z,1980
2017-11-09T08:23:39.548Z,2056
2017-11-09T08:24:41.982Z,1960
2017-11-09T08:25:44.404Z,1960
2017-11-09T08:26:46.833Z,1984
2017-11-09T08:27:49.263Z,1984
2017-11-09T08:28:51.689Z,1964
2017-11-09T08:29:54.823Z,2048
2017-11-09T08:30:57.245Z,1944
2017-11-09T08:31:59.679Z,1860
2017-11-09T08:33:02.104Z,1844
2017-11-09T08:34:04.529Z,1856
2017-11-09T08:35:06.964Z,1780
2017-11-09T08:36:09.760Z,1728
2017-11-09T08:37:12.194Z,1948
2017-11-09T08:38:14.630Z,1908
2017-11-09T08:39:17.040Z,1940
2017-11-09T08:40:19.476Z,1872
2017-11-09T08:41:21.892Z,2000
2017-11-09T08:42:24.323Z,1912
2017-11-09T08:43:27.149Z,1844
2017-11-09T08:44:29.556Z,1840
2017-11-09T08:45:31.980Z,1924
2017-11-09T08:46:34.426Z,1868
2017-11-09T08:47:36.846Z,1812
2017-11-09T08:48:39.267Z,1880
2017-11-09T08:49:42.079Z,1736
2017-11-09T08:50:44.502Z,1952
2017-11-09T08:51:47.301Z,2120
2017-11-09T08:52:49.743Z,2232
2017-11-09T08:53:52.150Z,2288
2017-11-09T08:54:54.585Z,2028
2017-11-09T08:55:57.013Z,2216
2017-11-09T08:56:59.445Z,2220
2017-11-09T08:58:01.873Z,2136
2017-11-09T08:59:04.661Z,2060
2017-11-09T09:00:07.097Z,2340
2017-11-09T09:01:09.524Z,2400
2017-11-09T09:02:11.956Z,2360
2017-11-09T09:03:14.986Z,2440
2017-11-09T09:04:17.513Z,2476
2017-11-09T09:05:21.219Z,2648
2017-11-09T09:06:23.984Z,2592
2017-11-09T09:07:26.419Z,2552
2017-11-09T09:08:29.193Z,2080
2017-11-09T09:09:31.617Z,2524
2017-11-09T09:10:34.045Z,2764
2017-11-09T09:11:36.475Z,2644
2017-11-09T09:12:38.891Z,2684
2017-11-09T09:13:41.323Z,2752
2017-11-09T09:14:44.105Z,2872
2017-11-09T09:15:46.890Z,3060
2017-11-09T09:16:49.317Z,2928
2017-11-09T09:17:52.087Z,2900
2017-11-09T09:18:54.518Z,2948
2017-11-09T09:19:56.947Z,2672
2017-11-09T09:20:59.370Z,2760
2017-11-09T09:22:01.805Z,2880
2017-11-09T09:23:04.229Z,3568
2017-11-09T09:24:06.668Z,3592
2017-11-09T09:25:09.089Z,3720
2017-11-09T09:26:11.521Z,3812
2017-11-09T09:27:13.940Z,3796
2017-11-09T09:28:16.381Z,3708
2017-11-09T09:29:18.819Z,3524
2017-11-09T09:30:21.236Z,3896
2017-11-09T09:31:23.663Z,3440
2017-11-09T09:32:26.104Z,3560
2017-11-09T09:33:28.535Z,3224
2017-11-09T09:34:30.962Z,3336
2017-11-09T09:35:33.383Z,3588
2017-11-09T09:36:35.801Z,3816
2017-11-09T09:37:38.238Z,3612
2017-11-09T09:38:41.400Z,3396
2017-11-09T09:39:44.185Z,3908
2017-11-09T09:40:46.613Z,3480
2017-11-09T09:41:49.045Z,3640
2017-11-09T09:42:51.461Z,4148
2017-11-09T09:43:53.902Z,4644
2017-11-09T09:44:56.325Z,4580
2017-11-09T09:45:58.752Z,4188
2017-11-09T09:47:01.545Z,4372
2017-11-09T09:48:03.972Z,4192
2017-11-09T09:49:06.753Z,4220
2017-11-09T09:50:09.558Z,3924
2017-11-09T09:51:11.983Z,4468
2017-11-09T09:52:14.413Z,4664
2017-11-09T09:53:16.849Z,4500
2017-11-09T09:54:19.276Z,3816
2017-11-09T09:55:22.066Z,4476
2017-11-09T09:56:24.506Z,4716
2017-11-09T09:57:26.930Z,4488
2017-11-09T09:58:29.353Z,4272
2017-11-09T09:59:32.131Z,3820
2017-11-09T10:00:34.951Z,4012
2017-11-09T10:01:37.382Z,4044
2017-11-09T10:02:39.807Z,4308
2017-11-09T10:03:42.229Z,4808
2017-11-09T10:04:44.670Z,4680
2017-11-09T10:05:47.104Z,4412
2017-11-09T10:06:49.529Z,4364
2017-11-09T10:07:51.947Z,4664
2017-11-09T10:08:54.380Z,5456
2017-11-09T10:09:57.030Z,5320
2017-11-09T10:10:59.471Z,4724
2017-11-09T10:12:02.249Z,5488
2017-11-09T10:13:04.688Z,4932
2017-11-09T10:14:07.109Z,5368
2017-11-09T10:15:09.547Z,4440
2017-11-09T10:16:11.994Z,4608
2017-11-09T10:17:14.421Z,5112
2017-11-09T10:18:16.839Z,5176
2017-11-09T10:19:19.272Z,5284
2017-11-09T10:20:21.702Z,4744
2017-11-09T10:21:24.485Z,4588
2017-11-09T10:22:26.915Z,4064
2017-11-09T10:23:29.715Z,3908
2017-11-09T10:24:32.994Z,4340
2017-11-09T10:25:35.434Z,5068
2017-11-09T10:26:37.852Z,5464
2017-11-09T10:27:40.275Z,5128
2017-11-09T10:28:42.723Z,5204
2017-11-09T10:29:45.146Z,5332
2017-11-09T10:30:47.576Z,5104
2017-11-09T10:31:50.004Z,4524
2017-11-09T10:32:52.435Z,3936
2017-11-09T10:33:54.855Z,4400
2017-11-09T10:34:57.674Z,4820
2017-11-09T10:36:00.092Z,4484
2017-11-09T10:37:02.518Z,4584
2017-11-09T10:38:04.959Z,4880
2017-11-09T10:39:07.381Z,5136
2017-11-09T10:40:09.799Z,4932
2017-11-09T10:41:12.231Z,5228
2017-11-09T10:42:14.652Z,5724
2017-11-09T10:43:17.082Z,4948
2017-11-09T10:44:19.510Z,5748
2017-11-09T10:45:21.936Z,5840
2017-11-09T10:46:24.365Z,5388
2017-11-09T10:47:26.797Z,4508
2017-11-09T10:48:29.219Z,3816
2017-11-09T10:49:31.658Z,5104
2017-11-09T10:50:34.068Z,5840
2017-11-09T10:51:36.493Z,5360
2017-11-09T10:52:38.927Z,6460
2017-11-09T10:53:41.350Z,5888
2017-11-09T10:54:43.775Z,5236
2017-11-09T10:55:46.211Z,5708
2017-11-09T10:56:48.645Z,5548
2017-11-09T10:57:51.408Z,5808
2017-11-09T10:58:53.830Z,6832
2017-11-09T10:59:56.269Z,6484
2017-11-09T11:00:58.691Z,6312
2017-11-09T11:02:01.115Z,5296
2017-11-09T11:03:03.548Z,5208
2017-11-09T11:04:05.975Z,5300
2017-11-09T11:05:08.404Z,5144
2017-11-09T11:06:11.214Z,5800
2017-11-09T11:07:13.627Z,6448
2017-11-09T11:08:16.063Z,7104
2017-11-09T11:09:18.486Z,7312
2017-11-09T11:10:20.914Z,6704
2017-11-09T11:11:23.341Z,6612
2017-11-09T11:12:25.769Z,6932
2017-11-09T11:13:28.199Z,7172
2017-11-09T11:14:30.636Z,7792
2017-11-09T11:15:33.056Z,8052
2017-11-09T11:16:35.491Z,8076
2017-11-09T11:17:37.911Z,9268
2017-11-09T11:18:40.343Z,9040
2017-11-09T11:19:42.771Z,8296
2017-11-09T11:20:45.197Z,7244
2017-11-09T11:21:47.627Z,7584
2017-11-09T11:22:50.056Z,7708
2017-11-09T11:23:52.488Z,7876
2017-11-09T11:24:54.924Z,7784
2017-11-09T11:25:57.336Z,8732
2017-11-09T11:26:59.768Z,9564
2017-11-09T11:28:02.190Z,9740
2017-11-09T11:29:04.619Z,8532
2017-11-09T11:30:07.089Z,7512
2017-11-09T11:31:09.517Z,8548
2017-11-09T11:32:11.943Z,10428
2017-11-09T11:33:14.722Z,11532
2017-11-09T11:34:17.158Z,10792
2017-11-09T11:35:19.587Z,10520
2017-11-09T11:36:22.384Z,12776
2017-11-09T11:37:24.817Z,13852
2017-11-09T11:38:27.959Z,11620
2017-11-09T11:39:30.774Z,12512
2017-11-09T11:40:33.196Z,11880
2017-11-09T11:41:35.618Z,11488
2017-11-09T11:42:38.055Z,10968
2017-11-09T11:43:40.857Z,7756
2017-11-09T11:44:43.273Z,7948
2017-11-09T11:45:45.707Z,8744
2017-11-09T11:46:48.147Z,8992
2017-11-09T11:47:51.329Z,7276
2017-11-09T11:48:53.761Z,7996
2017-11-09T11:49:56.177Z,8716
2017-11-09T11:50:58.958Z,6536
2017-11-09T11:52:01.402Z,5996
2017-11-09T11:53:03.831Z,6008
2017-11-09T11:54:06.316Z,6208
2017-11-09T11:55:09.095Z,6664
2017-11-09T11:56:11.520Z,5912
2017-11-09T11:57:13.948Z,4668
2017-11-09T11:58:16.366Z,4920
2017-11-09T11:59:18.798Z,5116
2017-11-09T12:00:21.224Z,4608
2017-11-09T12:01:23.657Z,4440
2017-11-09T12:02:26.084Z,5604
2017-11-09T12:03:28.513Z,5680
2017-11-09T12:04:31.301Z,5740
2017-11-09T12:05:33.736Z,6056
2017-11-09T12:06:36.508Z,4884
2017-11-09T12:07:38.937Z,4308
2017-11-09T12:08:41.364Z,4348
2017-11-09T12:09:43.793Z,4276
2017-11-09T12:10:46.214Z,5360
2017-11-09T12:11:48.999Z,4944
2017-11-09T12:12:51.424Z,5684
2017-11-09T12:13:53.857Z,5140
2017-11-09T12:14:56.294Z,5356
2017-11-09T12:15:59.073Z,5260
2017-11-09T12:17:01.502Z,6192
2017-11-09T12:18:04.031Z,6596
2017-11-09T12:19:06.445Z,6536
2017-11-09T12:20:08.873Z,5464
2017-11-09T12:21:11.310Z,4756
2017-11-09T12:22:13.722Z,3928
2017-11-09T12:23:16.162Z,3840
2017-11-09T12:24:18.599Z,3556
2017-11-09T12:25:21.009Z,3168
2017-11-09T12:26:23.444Z,3664
2017-11-09T12:27:25.870Z,3680
2017-11-09T12:28:28.301Z,3784
2017-11-09T12:29:30.720Z,3272
2017-11-09T12:30:33.177Z,3440
2017-11-09T12:31:35.592Z,3236
2017-11-09T12:32:38.014Z,3032
2017-11-09T12:33:40.450Z,3160
2017-11-09T12:34:42.879Z,2664
2017-11-09T12:35:45.308Z,2744
2017-11-09T12:36:47.734Z,2816
2017-11-09T12:37:50.157Z,2968
2017-11-09T12:38:52.577Z,2508
2017-11-09T12:39:55.011Z,2288
2017-11-09T12:40:57.785Z,2464
2017-11-09T12:42:00.222Z,2568
2017-11-09T12:43:02.654Z,2424
2017-11-09T12:44:05.150Z,2216
2017-11-09T12:45:07.584Z,2068
2017-11-09T12:46:10.011Z,1944
2017-11-09T12:47:12.440Z,2140
2017-11-09T12:48:14.881Z,2624
2017-11-09T12:49:17.291Z,2384
2017-11-09T12:50:19.725Z,3112
2017-11-09T12:51:22.155Z,3352
2017-11-09T12:52:24.935Z,3588
2017-11-09T12:53:27.756Z,4264
2017-11-09T12:54:30.222Z,3708
2017-11-09T12:55:32.644Z,3716
2017-11-09T12:56:35.076Z,3916
2017-11-09T12:57:37.506Z,4420
2017-11-09T12:58:39.933Z,4528
2017-11-09T12:59:42.364Z,4216
2017-11-09T13:00:44.797Z,4432
2017-11-09T13:01:47.218Z,4056
2017-11-09T13:02:49.662Z,3800
2017-11-09T13:03:52.069Z,3548
2017-11-09T13:04:54.506Z,3704
2017-11-09T13:05:56.933Z,3416
2017-11-09T13:06:59.717Z,2952
2017-11-09T13:08:02.503Z,3044
2017-11-09T13:09:04.931Z,2768
2017-11-09T13:10:07.364Z,3148
2017-11-09T13:11:09.786Z,2672
2017-11-09T13:12:12.220Z,2668
2017-11-09T13:13:14.642Z,2380
2017-11-09T13:14:17.063Z,2308
2017-11-09T13:15:19.501Z,2196
2017-11-09T13:16:22.286Z,2072
2017-11-09T13:17:24.721Z,1932
2017-11-09T13:18:27.143Z,2100
2017-11-09T13:19:29.574Z,2300
2017-11-09T13:20:32.009Z,2384
2017-11-09T13:21:34.438Z,2572
2017-11-09T13:22:36.858Z,2716
2017-11-09T13:23:39.305Z,2576
2017-11-09T13:24:41.733Z,2864
2017-11-09T13:25:44.161Z,3456
2017-11-09T13:26:46.591Z,3072
2017-11-09T13:27:49.031Z,2592
2017-11-09T13:28:51.447Z,2068
2017-11-09T13:29:53.881Z,2296
2017-11-09T13:30:56.667Z,2260
2017-11-09T13:31:59.465Z,2336
2017-11-09T13:33:02.254Z,2616
2017-11-09T13:34:04.675Z,2804
2017-11-09T13:35:07.108Z,2728
2017-11-09T13:36:09.540Z,2540
2017-11-09T13:37:11.974Z,2284
2017-11-09T13:38:14.401Z,2388
2017-11-09T13:39:16.827Z,2520
2017-11-09T13:40:19.267Z,2320
2017-11-09T13:41:21.691Z,2684
2017-11-09T13:42:24.124Z,3140
2017-11-09T13:43:26.910Z,3488
2017-11-09T13:44:29.346Z,3672
2017-11-09T13:45:31.769Z,3984
2017-11-09T13:46:34.207Z,4632
2017-11-09T13:47:36.624Z,5348
2017-11-09T13:48:39.419Z,5232
2017-11-09T13:49:41.846Z,4756
2017-11-09T13:50:44.274Z,4524
2017-11-09T13:51:46.710Z,4472
2017-11-09T13:52:49.136Z,4416
2017-11-09T13:53:51.565Z,4416
2017-11-09T13:54:53.995Z,4512
2017-11-09T13:55:56.435Z,4568
2017-11-09T13:56:58.858Z,4868
2017-11-09T13:58:01.287Z,5340
2017-11-09T13:59:03.714Z,5660
2017-11-09T14:00:06.138Z,5856
2017-11-09T14:01:08.927Z,5768
2017-11-09T14:02:11.373Z,5460
2017-11-09T14:03:13.786Z,5116
2017-11-09T14:04:16.223Z,4756
2017-11-09T14:05:19.010Z,4396
2017-11-09T14:06:21.432Z,4040
2017-11-09T14:07:23.863Z,3804
2017-11-09T14:08:26.294Z,3712
2017-11-09T14:09:28.724Z,3664
2017-11-09T14:10:31.158Z,3824
2017-11-09T14:11:33.581Z,3860
2017-11-09T14:12:36.009Z,3684
2017-11-09T14:13:38.429Z,3284
2017-11-09T14:14:40.861Z,2940
2017-11-09T14:15:43.286Z,2648
2017-11-09T14:16:45.719Z,2312
2017-11-09T14:17:48.513Z,2432
2017-11-09T14:18:50.953Z,2476
2017-11-09T14:19:53.736Z,2472
2017-11-09T14:20:56.169Z,2620
2017-11-09T14:21:58.592Z,2796
2017-11-09T14:23:01.390Z,2796
2017-11-09T14:24:04.186Z,2680
2017-11-09T14:25:06.610Z,2512
2017-11-09T14:26:28.245Z,2388
2017-11-09T14:27:30.657Z,2216
2017-11-09T14:28:33.446Z,2180
2017-11-09T14:29:35.875Z,2188
2017-11-09T14:30:38.659Z,2140
2017-11-09T14:31:41.087Z,2072
2017-11-09T14:32:43.511Z,1968